sensor_id;sensor_type;location;lat;lon;timestamp;pressure;altitude;pressure_sealevel;temperature;humidity
52535;BME280;38443;53.164;5.802;2022-10-26T00:02:01;101604.44;;;8.80;100.00
52535;BME280;38443;53.164;5.802;2022-10-26T00:04:26;101596.47;;;8.77;100.00
52535;BME280;38443;53.164;5.802;2022-10-26T00:06:52;101592.91;;;8.76;100.00
52535;BME280;38443;53.164;5.802;2022-10-26T00:09:17;101592.91;;;8.75;100.00
52535;BME280;38443;53.164;5.802;2022-10-26T00:11:42;101592.06;;;8.73;100.00
52535;BME280;38443;53.164;5.802;2022-10-26T00:14:07;101589.38;;;8.73;100.00
52535;BME280;38443;53.164;5.802;2022-10-26T00:16:33;101600.06;;;8.73;100.00
52535;BME280;38443;53.164;5.802;2022-10-26T00:18:58;101584.06;;;8.71;100.00
52535;BME280;38443;53.164;5.802;2022-10-26T00:21:23;101588.50;;;8.72;100.00
52535;BME280;38443;53.164;5.802;2022-10-26T00:23:49;101583.16;;;8.72;100.00
52535;BME280;38443;53.164;5.802;2022-10-26T00:26:14;101590.25;;;8.73;100.00
52535;BME280;38443;53.164;5.802;2022-10-26T00:28:39;101583.13;;;8.74;100.00
52535;BME280;38443;53.164;5.802;2022-10-26T00:31:10;101585.78;;;8.74;100.00
52535;BME280;38443;53.164;5.802;2022-10-26T00:33:36;101584.91;;;8.73;100.00
52535;BME280;38443;53.164;5.802;2022-10-26T00:36:01;101593.84;;;8.72;100.00
52535;BME280;38443;53.164;5.802;2022-10-26T00:38:26;101588.50;;;8.71;100.00
52535;BME280;38443;53.164;5.802;2022-10-26T00:40:52;101582.31;;;8.69;100.00
52535;BME280;38443;53.164;5.802;2022-10-26T00:45:45;101578.84;;;8.61;100.00
52535;BME280;38443;53.164;5.802;2022-10-26T00:48:22;101580.63;;;8.55;100.00
52535;BME280;38443;53.164;5.802;2022-10-26T00:50:48;101579.78;;;8.53;100.00
52535;BME280;38443;53.164;5.802;2022-10-26T00:53:15;101573.56;;;8.50;100.00
52535;BME280;38443;53.164;5.802;2022-10-26T00:55:43;101578.03;;;8.48;100.00
52535;BME280;38443;53.164;5.802;2022-10-26T00:58:09;101575.41;;;8.43;100.00
52535;BME280;38443;53.164;5.802;2022-10-26T01:00:35;101570.97;;;8.39;100.00
52535;BME280;38443;53.164;5.802;2022-10-26T01:03:01;101568.34;;;8.34;100.00
52535;BME280;38443;53.164;5.802;2022-10-26T01:05:28;101576.38;;;8.30;100.00
52535;BME280;38443;53.164;5.802;2022-10-26T01:07:54;101572.88;;;8.26;100.00
52535;BME280;38443;53.164;5.802;2022-10-26T01:10:23;101563.09;;;8.24;100.00
52535;BME280;38443;53.164;5.802;2022-10-26T01:12:49;101567.59;;;8.20;100.00
52535;BME280;38443;53.164;5.802;2022-10-26T01:15:15;101565.81;;;8.17;100.00
52535;BME280;38443;53.164;5.802;2022-10-26T01:17:54;101565.84;;;8.14;100.00
52535;BME280;38443;53.164;5.802;2022-10-26T01:23:03;101566.78;;;8.09;100.00
52535;BME280;38443;53.164;5.802;2022-10-26T01:27:57;101552.63;;;8.02;100.00
52535;BME280;38443;53.164;5.802;2022-10-26T01:35:28;101550.88;;;7.93;100.00
52535;BME280;38443;53.164;5.802;2022-10-26T01:37:58;101547.38;;;7.90;100.00
52535;BME280;38443;53.164;5.802;2022-10-26T01:40:28;101542.94;;;7.87;100.00
52535;BME280;38443;53.164;5.802;2022-10-26T01:42:56;101542.94;;;7.86;100.00
52535;BME280;38443;53.164;5.802;2022-10-26T01:45:23;101548.25;;;7.86;100.00
52535;BME280;38443;53.164;5.802;2022-10-26T01:47:49;101541.19;;;7.83;100.00
52535;BME280;38443;53.164;5.802;2022-10-26T01:50:16;101533.19;;;7.82;100.00
52535;BME280;38443;53.164;5.802;2022-10-26T01:52:42;101535.84;;;7.82;100.00
52535;BME280;38443;53.164;5.802;2022-10-26T01:57:51;101538.56;;;7.77;100.00
52535;BME280;38443;53.164;5.802;2022-10-26T02:08:12;101531.50;;;7.70;100.00
52535;BME280;38443;53.164;5.802;2022-10-26T02:13:40;101522.66;;;7.65;100.00
52535;BME280;38443;53.164;5.802;2022-10-26T02:18:34;101515.53;;;7.64;100.00
52535;BME280;38443;53.164;5.802;2022-10-26T02:21:08;101508.47;;;7.64;100.00
52535;BME280;38443;53.164;5.802;2022-10-26T02:23:35;101507.53;;;7.65;100.00
52535;BME280;38443;53.164;5.802;2022-10-26T02:26:03;101512.00;;;7.66;100.00
52535;BME280;38443;53.164;5.802;2022-10-26T02:28:30;101504.88;;;7.67;100.00
52535;BME280;38443;53.164;5.802;2022-10-26T02:30:58;101502.22;;;7.68;100.00
52535;BME280;38443;53.164;5.802;2022-10-26T02:33:25;101499.56;;;7.65;100.00
52535;BME280;38443;53.164;5.802;2022-10-26T02:35:54;101507.59;;;7.62;100.00
52535;BME280;38443;53.164;5.802;2022-10-26T02:38:22;101500.50;;;7.58;100.00
52535;BME280;38443;53.164;5.802;2022-10-26T02:40:49;101492.53;;;7.53;100.00
52535;BME280;38443;53.164;5.802;2022-10-26T02:43:16;101498.75;;;7.49;100.00
52535;BME280;38443;53.164;5.802;2022-10-26T02:45:47;101497.88;;;7.47;100.00
52535;BME280;38443;53.164;5.802;2022-10-26T02:48:14;101489.03;;;7.44;100.00
52535;BME280;38443;53.164;5.802;2022-10-26T02:50:42;101481.97;;;7.38;100.00
52535;BME280;38443;53.164;5.802;2022-10-26T02:53:21;101486.41;;;7.37;100.00
52535;BME280;38443;53.164;5.802;2022-10-26T02:55:49;101476.66;;;7.36;100.00
52535;BME280;38443;53.164;5.802;2022-10-26T02:58:19;101478.44;;;7.36;100.00
52535;BME280;38443;53.164;5.802;2022-10-26T03:00:46;101481.97;;;7.36;100.00
52535;BME280;38443;53.164;5.802;2022-10-26T03:03:13;101474.88;;;7.35;100.00
52535;BME280;38443;53.164;5.802;2022-10-26T03:05:40;101473.09;;;7.37;100.00
52535;BME280;38443;53.164;5.802;2022-10-26T03:08:06;101467.72;;;7.44;100.00
52535;BME280;38443;53.164;5.802;2022-10-26T03:10:31;101469.47;;;7.51;100.00
52535;BME280;38443;53.164;5.802;2022-10-26T03:12:57;101462.34;;;7.56;100.00
52535;BME280;38443;53.164;5.802;2022-10-26T03:15:22;101464.09;;;7.60;100.00
52535;BME280;38443;53.164;5.802;2022-10-26T03:17:48;101461.38;;;7.65;100.00
52535;BME280;38443;53.164;5.802;2022-10-26T03:20:13;101462.25;;;7.68;100.00
52535;BME280;38443;53.164;5.802;2022-10-26T03:22:38;101471.09;;;7.70;100.00
52535;BME280;38443;53.164;5.802;2022-10-26T03:25:04;101462.19;;;7.73;100.00
52535;BME280;38443;53.164;5.802;2022-10-26T03:27:29;101463.97;;;7.74;100.00
52535;BME280;38443;53.164;5.802;2022-10-26T03:29:54;101459.53;;;7.76;100.00
52535;BME280;38443;53.164;5.802;2022-10-26T03:32:19;101458.59;;;7.78;100.00
52535;BME280;38443;53.164;5.802;2022-10-26T03:34:45;101458.56;;;7.82;100.00
52535;BME280;38443;53.164;5.802;2022-10-26T03:37:10;101456.75;;;7.85;100.00
52535;BME280;38443;53.164;5.802;2022-10-26T03:39:35;101462.97;;;7.87;100.00
52535;BME280;38443;53.164;5.802;2022-10-26T03:42:00;101454.09;;;7.87;100.00
52535;BME280;38443;53.164;5.802;2022-10-26T03:44:26;101452.31;;;7.87;100.00
52535;BME280;38443;53.164;5.802;2022-10-26T03:46:51;101456.75;;;7.87;100.00
52535;BME280;38443;53.164;5.802;2022-10-26T03:49:16;101449.63;;;7.87;100.00
52535;BME280;38443;53.164;5.802;2022-10-26T03:51:42;101458.50;;;7.89;100.00
52535;BME280;38443;53.164;5.802;2022-10-26T03:54:07;101451.41;;;7.90;100.00
52535;BME280;38443;53.164;5.802;2022-10-26T03:56:32;101454.97;;;7.90;100.00
52535;BME280;38443;53.164;5.802;2022-10-26T03:58:57;101453.16;;;7.91;100.00
52535;BME280;38443;53.164;5.802;2022-10-26T04:01:23;101456.72;;;7.91;100.00
52535;BME280;38443;53.164;5.802;2022-10-26T04:03:48;101458.50;;;7.94;100.00
52535;BME280;38443;53.164;5.802;2022-10-26T04:06:13;101449.59;;;7.95;100.00
52535;BME280;38443;53.164;5.802;2022-10-26T04:08:38;101451.31;;;7.97;100.00
52535;BME280;38443;53.164;5.802;2022-10-26T04:11:04;101446.91;;;7.98;100.00
52535;BME280;38443;53.164;5.802;2022-10-26T04:13:29;101445.97;;;8.01;100.00
52535;BME280;38443;53.164;5.802;2022-10-26T04:15:54;101448.66;;;8.02;100.00
52535;BME280;38443;53.164;5.802;2022-10-26T04:18:20;101447.72;;;8.05;100.00
52535;BME280;38443;53.164;5.802;2022-10-26T04:20:45;101447.72;;;8.06;100.00
52535;BME280;38443;53.164;5.802;2022-10-26T04:23:11;101440.56;;;8.10;100.00
52535;BME280;38443;53.164;5.802;2022-10-26T04:25:37;101448.53;;;8.11;100.00
52535;BME280;38443;53.164;5.802;2022-10-26T04:28:03;101441.41;;;8.13;100.00
52535;BME280;38443;53.164;5.802;2022-10-26T04:30:30;101449.41;;;8.16;100.00
52535;BME280;38443;53.164;5.802;2022-10-26T04:32:59;101444.06;;;8.18;100.00
52535;BME280;38443;53.164;5.802;2022-10-26T04:35:24;101443.13;;;8.21;100.00
52535;BME280;38443;53.164;5.802;2022-10-26T04:37:50;101444.88;;;8.22;100.00
52535;BME280;38443;53.164;5.802;2022-10-26T04:40:15;101443.09;;;8.24;100.00
52535;BME280;38443;53.164;5.802;2022-10-26T04:42:41;101442.19;;;8.25;100.00
52535;BME280;38443;53.164;5.802;2022-10-26T04:45:07;101440.41;;;8.27;100.00
52535;BME280;38443;53.164;5.802;2022-10-26T04:47:33;101441.25;;;8.29;100.00
52535;BME280;38443;53.164;5.802;2022-10-26T04:49:58;101438.59;;;8.29;100.00
52535;BME280;38443;53.164;5.802;2022-10-26T04:52:23;101435.00;;;8.30;100.00
52535;BME280;38443;53.164;5.802;2022-10-26T04:54:48;101438.59;;;8.32;100.00
52535;BME280;38443;53.164;5.802;2022-10-26T04:57:13;101428.78;;;8.32;100.00
52535;BME280;38443;53.164;5.802;2022-10-26T04:59:39;101429.66;;;8.34;100.00
52535;BME280;38443;53.164;5.802;2022-10-26T05:02:04;101430.53;;;8.35;100.00
52535;BME280;38443;53.164;5.802;2022-10-26T05:04:29;101419.88;;;8.35;100.00
52535;BME280;38443;53.164;5.802;2022-10-26T05:06:54;101424.28;;;8.37;100.00
52535;BME280;38443;53.164;5.802;2022-10-26T05:09:20;101432.28;;;8.37;100.00
52535;BME280;38443;53.164;5.802;2022-10-26T05:11:45;101436.72;;;8.40;100.00
52535;BME280;38443;53.164;5.802;2022-10-26T05:14:10;101430.50;;;8.41;100.00
52535;BME280;38443;53.164;5.802;2022-10-26T05:16:37;101431.34;;;8.46;100.00
52535;BME280;38443;53.164;5.802;2022-10-26T05:19:02;101423.34;;;8.46;100.00
52535;BME280;38443;53.164;5.802;2022-10-26T05:21:27;101412.59;;;8.51;100.00
52535;BME280;38443;53.164;5.802;2022-10-26T05:23:52;101413.47;;;8.53;100.00
52535;BME280;38443;53.164;5.802;2022-10-26T05:26:19;101407.22;;;8.55;100.00
52535;BME280;38443;53.164;5.802;2022-10-26T05:28:45;101406.31;;;8.56;100.00
52535;BME280;38443;53.164;5.802;2022-10-26T05:31:10;101399.19;;;8.57;100.00
52535;BME280;38443;53.164;5.802;2022-10-26T05:33:35;101394.72;;;8.57;100.00
52535;BME280;38443;53.164;5.802;2022-10-26T05:36:01;101391.19;;;8.58;100.00
52535;BME280;38443;53.164;5.802;2022-10-26T05:38:26;101390.25;;;8.59;100.00
52535;BME280;38443;53.164;5.802;2022-10-26T05:40:52;101394.72;;;8.61;100.00
52535;BME280;38443;53.164;5.802;2022-10-26T05:43:18;101391.13;;;8.62;100.00
52535;BME280;38443;53.164;5.802;2022-10-26T05:45:43;101391.09;;;8.63;100.00
52535;BME280;38443;53.164;5.802;2022-10-26T05:48:08;101391.97;;;8.65;100.00
52535;BME280;38443;53.164;5.802;2022-10-26T05:50:34;101395.50;;;8.66;100.00
52535;BME280;38443;53.164;5.802;2022-10-26T05:52:59;101399.09;;;8.66;100.00
52535;BME280;38443;53.164;5.802;2022-10-26T05:55:25;101400.84;;;8.69;100.00
52535;BME280;38443;53.164;5.802;2022-10-26T05:57:51;101403.50;;;8.69;100.00
52535;BME280;38443;53.164;5.802;2022-10-26T06:02:48;101403.44;;;8.72;100.00
52535;BME280;38443;53.164;5.802;2022-10-26T06:05:20;101408.78;;;8.72;100.00
52535;BME280;38443;53.164;5.802;2022-10-26T06:07:47;101405.22;;;8.74;100.00
52535;BME280;38443;53.164;5.802;2022-10-26T06:12:56;101405.25;;;8.70;100.00
52535;BME280;38443;53.164;5.802;2022-10-26T06:15:22;101409.72;;;8.69;100.00
52535;BME280;38443;53.164;5.802;2022-10-26T06:30:19;101411.66;;;8.56;100.00
52535;BME280;38443;53.164;5.802;2022-10-26T06:32:47;101413.41;;;8.57;100.00
52535;BME280;38443;53.164;5.802;2022-10-26T06:37:57;101409.88;;;8.57;100.00
52535;BME280;38443;53.164;5.802;2022-10-26T06:40:24;101414.31;;;8.56;100.00
52535;BME280;38443;53.164;5.802;2022-10-26T06:42:49;101412.53;;;8.55;100.00
52535;BME280;38443;53.164;5.802;2022-10-26T06:45:15;101416.13;;;8.56;100.00
52535;BME280;38443;53.164;5.802;2022-10-26T06:47:56;101419.69;;;8.53;100.00
52535;BME280;38443;53.164;5.802;2022-10-26T06:55:41;101423.97;;;8.67;100.00
52535;BME280;38443;53.164;5.802;2022-10-26T06:58:08;101420.38;;;8.72;100.00
52535;BME280;38443;53.164;5.802;2022-10-26T07:00:35;101422.94;;;8.78;100.00
52535;BME280;38443;53.164;5.802;2022-10-26T07:03:02;101431.78;;;8.84;100.00
52535;BME280;38443;53.164;5.802;2022-10-26T07:05:27;101426.41;;;8.88;100.00
52535;BME280;38443;53.164;5.802;2022-10-26T07:07:53;101421.88;;;8.92;100.00
52535;BME280;38443;53.164;5.802;2022-10-26T07:10:18;101427.16;;;8.98;100.00
52535;BME280;38443;53.164;5.802;2022-10-26T07:12:44;101420.81;;;9.04;100.00
52535;BME280;38443;53.164;5.802;2022-10-26T07:15:09;101422.56;;;9.08;100.00
52535;BME280;38443;53.164;5.802;2022-10-26T07:17:45;101418.03;;;9.13;100.00
52535;BME280;38443;53.164;5.802;2022-10-26T07:20:12;101416.16;;;9.18;100.00
52535;BME280;38443;53.164;5.802;2022-10-26T07:22:37;101417.88;;;9.24;100.00
52535;BME280;38443;53.164;5.802;2022-10-26T07:25:03;101417.78;;;9.30;100.00
52535;BME280;38443;53.164;5.802;2022-10-26T07:27:29;101416.81;;;9.37;100.00
52535;BME280;38443;53.164;5.802;2022-10-26T07:29:54;101402.47;;;9.43;100.00
52535;BME280;38443;53.164;5.802;2022-10-26T07:32:20;101402.38;;;9.49;100.00
52535;BME280;38443;53.164;5.802;2022-10-26T07:34:46;101403.16;;;9.54;100.00
52535;BME280;38443;53.164;5.802;2022-10-26T07:37:11;101410.22;;;9.58;100.00
52535;BME280;38443;53.164;5.802;2022-10-26T07:39:38;101411.03;;;9.65;100.00
52535;BME280;38443;53.164;5.802;2022-10-26T07:42:03;101425.22;;;9.68;100.00
52535;BME280;38443;53.164;5.802;2022-10-26T07:44:28;101423.34;;;9.73;100.00
52535;BME280;38443;53.164;5.802;2022-10-26T07:46:53;101420.59;;;9.78;100.00
52535;BME280;38443;53.164;5.802;2022-10-26T07:49:19;101419.63;;;9.82;100.00
52535;BME280;38443;53.164;5.802;2022-10-26T07:51:44;101418.63;;;9.89;100.00
52535;BME280;38443;53.164;5.802;2022-10-26T07:54:10;101410.38;;;10.02;100.00
52535;BME280;38443;53.164;5.802;2022-10-26T07:56:35;101409.25;;;10.16;100.00
52535;BME280;38443;53.164;5.802;2022-10-26T07:59:00;101413.41;;;10.34;100.00
52535;BME280;38443;53.164;5.802;2022-10-26T08:01:26;101408.81;;;10.40;100.00
52535;BME280;38443;53.164;5.802;2022-10-26T08:03:51;101404.97;;;10.54;100.00
52535;BME280;38443;53.164;5.802;2022-10-26T08:06:17;101407.97;;;10.83;98.89
52535;BME280;38443;53.164;5.802;2022-10-26T08:08:42;101411.50;;;10.83;97.97
52535;BME280;38443;53.164;5.802;2022-10-26T08:11:08;101420.97;;;11.00;98.13
52535;BME280;38443;53.164;5.802;2022-10-26T08:13:33;101411.13;;;11.41;96.56
52535;BME280;38443;53.164;5.802;2022-10-26T08:16:00;101423.75;;;11.73;94.54
52535;BME280;38443;53.164;5.802;2022-10-26T08:18:26;101419.75;;;11.91;94.34
52535;BME280;38443;53.164;5.802;2022-10-26T08:20:52;101422.81;;;12.11;93.52
52535;BME280;38443;53.164;5.802;2022-10-26T08:23:17;101416.25;;;12.22;92.03
52535;BME280;38443;53.164;5.802;2022-10-26T08:25:42;101405.19;;;12.34;91.29
52535;BME280;38443;53.164;5.802;2022-10-26T08:28:08;101411.31;;;12.39;91.64
52535;BME280;38443;53.164;5.802;2022-10-26T08:30:33;101410.38;;;12.40;91.23
52535;BME280;38443;53.164;5.802;2022-10-26T08:33:02;101414.88;;;12.40;92.35
52535;BME280;38443;53.164;5.802;2022-10-26T08:35:28;101415.94;;;12.34;92.34
52535;BME280;38443;53.164;5.802;2022-10-26T08:37:54;101410.66;;;12.31;92.35
52535;BME280;38443;53.164;5.802;2022-10-26T08:40:41;101414.34;;;12.27;92.29
52535;BME280;38443;53.164;5.802;2022-10-26T08:45:48;101427.28;;;12.11;93.37
52535;BME280;38443;53.164;5.802;2022-10-26T08:48:17;101438.06;;;12.09;93.49
52535;BME280;38443;53.164;5.802;2022-10-26T08:51:17;101425.19;;;12.22;93.48
52535;BME280;38443;53.164;5.802;2022-10-26T08:53:37;101422.00;;;12.41;92.96
52535;BME280;38443;53.164;5.802;2022-10-26T08:56:17;101425.06;;;12.60;92.14
52535;BME280;38443;53.164;5.802;2022-10-26T08:58:50;101429.91;;;12.78;91.21
52535;BME280;38443;53.164;5.802;2022-10-26T09:01:17;101423.31;;;12.88;90.20
52535;BME280;38443;53.164;5.802;2022-10-26T09:03:42;101416.72;;;13.00;89.13
52535;BME280;38443;53.164;5.802;2022-10-26T09:11:17;101429.66;;;13.17;86.83
52535;BME280;38443;53.164;5.802;2022-10-26T09:13:57;101429.72;;;13.14;87.60
52535;BME280;38443;53.164;5.802;2022-10-26T09:16:27;101433.22;;;13.17;87.42
52535;BME280;38443;53.164;5.802;2022-10-26T09:19:19;101449.13;;;13.25;87.95
52535;BME280;38443;53.164;5.802;2022-10-26T09:21:50;101444.28;;;13.36;88.16
52535;BME280;38443;53.164;5.802;2022-10-26T09:29:15;101444.44;;;13.60;86.76
52535;BME280;38443;53.164;5.802;2022-10-26T09:31:41;101435.34;;;13.64;85.92
52535;BME280;38443;53.164;5.802;2022-10-26T09:34:11;101440.66;;;13.67;86.46
52535;BME280;38443;53.164;5.802;2022-10-26T09:36:40;101427.00;;;13.73;85.93
52535;BME280;38443;53.164;5.802;2022-10-26T09:39:20;101437.63;;;13.76;86.77
52535;BME280;38443;53.164;5.802;2022-10-26T09:41:58;101442.81;;;13.83;86.14
52535;BME280;38443;53.164;5.802;2022-10-26T09:44:29;101446.00;;;13.95;86.39
52535;BME280;38443;53.164;5.802;2022-10-26T09:46:57;101453.69;;;14.06;85.53
52535;BME280;38443;53.164;5.802;2022-10-26T09:49:31;101446.34;;;14.11;86.24
52535;BME280;38443;53.164;5.802;2022-10-26T09:51:58;101445.66;;;14.05;85.41
52535;BME280;38443;53.164;5.802;2022-10-26T09:54:23;101448.47;;;14.02;85.97
52535;BME280;38443;53.164;5.802;2022-10-26T09:56:50;101438.75;;;13.98;86.02
52535;BME280;38443;53.164;5.802;2022-10-26T09:59:17;101441.47;;;13.96;85.54
52535;BME280;38443;53.164;5.802;2022-10-26T10:01:44;101448.59;;;13.97;86.08
52535;BME280;38443;53.164;5.802;2022-10-26T10:06:35;101445.81;;;14.00;87.03
52535;BME280;38443;53.164;5.802;2022-10-26T10:09:14;101450.16;;;14.04;86.21
52535;BME280;38443;53.164;5.802;2022-10-26T10:11:42;101440.84;;;14.14;85.93
52535;BME280;38443;53.164;5.802;2022-10-26T10:14:08;101431.72;;;14.19;86.74
52535;BME280;38443;53.164;5.802;2022-10-26T10:16:33;101429.81;;;14.22;85.10
52535;BME280;38443;53.164;5.802;2022-10-26T10:18:59;101423.34;;;14.28;84.37
52535;BME280;38443;53.164;5.802;2022-10-26T10:21:44;101427.63;;;14.33;85.11
52535;BME280;38443;53.164;5.802;2022-10-26T10:32:10;101436.53;;;14.35;85.22
52535;BME280;38443;53.164;5.802;2022-10-26T10:34:38;101453.53;;;14.38;84.62
52535;BME280;38443;53.164;5.802;2022-10-26T10:37:12;101460.47;;;14.43;85.80
52535;BME280;38443;53.164;5.802;2022-10-26T10:39:46;101462.03;;;14.50;86.18
52535;BME280;38443;53.164;5.802;2022-10-26T10:42:22;101457.41;;;14.54;85.46
52535;BME280;38443;53.164;5.802;2022-10-26T10:44:52;101473.34;;;14.62;85.38
52535;BME280;38443;53.164;5.802;2022-10-26T10:47:20;101468.56;;;14.70;86.42
52535;BME280;38443;53.164;5.802;2022-10-26T10:49:53;101482.69;;;14.76;85.82
52535;BME280;38443;53.164;5.802;2022-10-26T10:52:23;101482.50;;;14.81;86.43
52535;BME280;38443;53.164;5.802;2022-10-26T10:54:50;101486.84;;;14.85;85.21
52535;BME280;38443;53.164;5.802;2022-10-26T10:57:22;101490.44;;;14.86;84.55
52535;BME280;38443;53.164;5.802;2022-10-26T10:59:55;101492.19;;;14.87;84.35
52535;BME280;38443;53.164;5.802;2022-10-26T11:07:24;101497.19;;;14.98;84.61
52535;BME280;38443;53.164;5.802;2022-10-26T11:09:50;101506.00;;;15.01;84.74
52535;BME280;38443;53.164;5.802;2022-10-26T11:12:18;101521.22;;;15.04;84.26
52535;BME280;38443;53.164;5.802;2022-10-26T11:14:46;101506.69;;;15.08;84.22
52535;BME280;38443;53.164;5.802;2022-10-26T11:17:25;101505.59;;;15.13;85.17
52535;BME280;38443;53.164;5.802;2022-10-26T11:20:12;101501.94;;;15.14;83.00
52535;BME280;38443;53.164;5.802;2022-10-26T11:23:03;101498.38;;;15.14;82.25
52535;BME280;38443;53.164;5.802;2022-10-26T11:25:27;101506.31;;;15.17;83.64
52535;BME280;38443;53.164;5.802;2022-10-26T11:28:04;101509.03;;;15.17;83.38
52535;BME280;38443;53.164;5.802;2022-10-26T11:30:35;101517.13;;;15.17;82.71
52535;BME280;38443;53.164;5.802;2022-10-26T11:33:14;101512.63;;;15.18;83.05
52535;BME280;38443;53.164;5.802;2022-10-26T11:35:57;101523.28;;;15.21;83.60
52535;BME280;38443;53.164;5.802;2022-10-26T11:41:01;101529.50;;;15.23;82.91
52535;BME280;38443;53.164;5.802;2022-10-26T11:43:34;101533.06;;;15.23;82.79
52535;BME280;38443;53.164;5.802;2022-10-26T11:46:10;101525.06;;;15.22;83.66
52535;BME280;38443;53.164;5.802;2022-10-26T11:48:50;101532.25;;;15.21;83.22
52535;BME280;38443;53.164;5.802;2022-10-26T11:53:46;101542.78;;;15.27;83.58
52535;BME280;38443;53.164;5.802;2022-10-26T11:56:35;101543.47;;;15.34;83.29
52535;BME280;38443;53.164;5.802;2022-10-26T11:58:59;101539.72;;;15.38;83.04
52535;BME280;38443;53.164;5.802;2022-10-26T12:01:25;101540.63;;;15.37;83.43
52535;BME280;38443;53.164;5.802;2022-10-26T12:03:53;101538.69;;;15.41;83.76
52535;BME280;38443;53.164;5.802;2022-10-26T12:06:24;101543.03;;;15.45;83.77
52535;BME280;38443;53.164;5.802;2022-10-26T12:09:01;101528.69;;;15.44;83.68
52535;BME280;38443;53.164;5.802;2022-10-26T12:14:01;101537.25;;;15.55;84.40
52535;BME280;38443;53.164;5.802;2022-10-26T12:18:57;101532.72;;;15.56;83.85
52535;BME280;38443;53.164;5.802;2022-10-26T12:21:27;101527.38;;;15.54;84.51
52535;BME280;38443;53.164;5.802;2022-10-26T12:23:57;101547.97;;;15.57;85.41
52535;BME280;38443;53.164;5.802;2022-10-26T12:28:48;101554.94;;;15.63;84.80
52535;BME280;38443;53.164;5.802;2022-10-26T12:34:11;101538.75;;;15.63;85.37
52535;BME280;38443;53.164;5.802;2022-10-26T12:36:48;101545.22;;;15.59;84.86
52535;BME280;38443;53.164;5.802;2022-10-26T12:39:27;101551.44;;;15.61;85.58
52535;BME280;38443;53.164;5.802;2022-10-26T12:41:57;101538.88;;;15.60;85.24
52535;BME280;38443;53.164;5.802;2022-10-26T12:44:39;101551.47;;;15.59;85.21
52535;BME280;38443;53.164;5.802;2022-10-26T12:55:19;101566.06;;;15.53;86.17
52535;BME280;38443;53.164;5.802;2022-10-26T12:57:53;101568.84;;;15.52;85.75
52535;BME280;38443;53.164;5.802;2022-10-26T13:00:23;101564.44;;;15.49;85.79
52535;BME280;38443;53.164;5.802;2022-10-26T13:02:53;101568.09;;;15.48;86.28
52535;BME280;38443;53.164;5.802;2022-10-26T13:08:10;101580.53;;;15.52;85.27
52535;BME280;38443;53.164;5.802;2022-10-26T13:10:39;101584.03;;;15.54;85.44
52535;BME280;38443;53.164;5.802;2022-10-26T13:13:07;101575.06;;;15.54;85.61
52535;BME280;38443;53.164;5.802;2022-10-26T13:20:23;101577.72;;;15.55;85.60
52535;BME280;38443;53.164;5.802;2022-10-26T13:22:48;101581.28;;;15.56;86.51
52535;BME280;38443;53.164;5.802;2022-10-26T13:27:46;101589.09;;;15.64;86.61
52535;BME280;38443;53.164;5.802;2022-10-26T13:30:33;101592.47;;;15.69;87.15
52535;BME280;38443;53.164;5.802;2022-10-26T13:33:00;101589.72;;;15.70;86.70
52535;BME280;38443;53.164;5.802;2022-10-26T13:35:26;101593.03;;;15.79;86.92
52535;BME280;38443;53.164;5.802;2022-10-26T13:37:53;101586.72;;;15.80;86.75
52535;BME280;38443;53.164;5.802;2022-10-26T13:40:22;101597.72;;;15.73;86.50
52535;BME280;38443;53.164;5.802;2022-10-26T13:42:52;101590.75;;;15.68;86.61
52535;BME280;38443;53.164;5.802;2022-10-26T13:45:26;101592.63;;;15.66;86.97
52535;BME280;38443;53.164;5.802;2022-10-26T13:50:28;101600.03;;;15.59;87.48
52535;BME280;38443;53.164;5.802;2022-10-26T13:52:58;101601.06;;;15.56;87.34
52535;BME280;38443;53.164;5.802;2022-10-26T13:55:28;101597.53;;;15.54;87.93
52535;BME280;38443;53.164;5.802;2022-10-26T13:58:02;101611.94;;;15.53;87.63
52535;BME280;38443;53.164;5.802;2022-10-26T14:00:30;101619.13;;;15.54;87.62
52535;BME280;38443;53.164;5.802;2022-10-26T14:03:17;101618.19;;;15.55;87.55
52535;BME280;38443;53.164;5.802;2022-10-26T14:05:45;101613.63;;;15.58;87.78
52535;BME280;38443;53.164;5.802;2022-10-26T14:08:14;101618.84;;;15.62;87.71
52535;BME280;38443;53.164;5.802;2022-10-26T14:10:52;101608.97;;;15.61;87.82
52535;BME280;38443;53.164;5.802;2022-10-26T14:13:20;101610.97;;;15.56;87.79
52535;BME280;38443;53.164;5.802;2022-10-26T14:15:47;101605.81;;;15.50;88.25
52535;BME280;38443;53.164;5.802;2022-10-26T14:18:17;101613.13;;;15.46;88.19
52535;BME280;38443;53.164;5.802;2022-10-26T14:20:47;101614.72;;;15.52;88.29
52535;BME280;38443;53.164;5.802;2022-10-26T14:26:17;101632.28;;;15.64;87.97
52535;BME280;38443;53.164;5.802;2022-10-26T14:28:45;101637.97;;;15.56;87.54
52535;BME280;38443;53.164;5.802;2022-10-26T14:31:12;101645.47;;;15.48;88.11
52535;BME280;38443;53.164;5.802;2022-10-26T14:33:37;101651.00;;;15.43;87.74
52535;BME280;38443;53.164;5.802;2022-10-26T14:36:03;101659.28;;;15.39;88.39
52535;BME280;38443;53.164;5.802;2022-10-26T14:38:29;101663.13;;;15.31;88.29
52535;BME280;38443;53.164;5.802;2022-10-26T14:40:56;101668.75;;;15.25;88.62
52535;BME280;38443;53.164;5.802;2022-10-26T14:43:23;101671.59;;;15.21;88.95
52535;BME280;38443;53.164;5.802;2022-10-26T14:45:49;101676.31;;;15.15;89.30
52535;BME280;38443;53.164;5.802;2022-10-26T14:48:20;101676.34;;;15.14;89.75
52535;BME280;38443;53.164;5.802;2022-10-26T14:51:02;101686.19;;;15.15;89.64
52535;BME280;38443;53.164;5.802;2022-10-26T14:53:38;101690.66;;;15.16;90.09
52535;BME280;38443;53.164;5.802;2022-10-26T14:56:05;101698.00;;;15.11;90.24
52535;BME280;38443;53.164;5.802;2022-10-26T14:58:40;101698.22;;;15.05;90.33